RVS weather

Richard Lloyd Jones Jr Airport
Tulsa, Oklahoma, United States

Public forecast

Using degrees Fahrenheit for public forecast. Weather courtesy of forecast.io.

METAR (pilot weather report)

Retrieved 2019/04/22 03:53 UTC (8 minutes ago):

KRVS 220353Z AUTO 17009KT 10SM CLR 23/11 A2989 RMK AO2 SLP125 T02280111

TAF (pilot weather forecast)

Forecast is more than 12 hours old.

Retrieved 2019/04/21 00:22 UTC (1 day ago):

TAF KRVS 212320Z 2200/2224 17018G28KT P6SM SKC FM220100 18013KT P6SM SCT150 FM221500 19012G20KT P6SM BKN025